createdAt,value
2018-08-04T00:01:49.332Z,63.50
2018-08-04T00:04:30.709Z,63.30
2018-08-04T00:07:13.864Z,62.80
2018-08-04T00:09:55.680Z,63.20
2018-08-04T00:12:37.742Z,63.50
2018-08-04T00:15:19.143Z,63.30
2018-08-04T00:18:00.652Z,63.40
2018-08-04T00:20:44.004Z,63.60
2018-08-04T00:23:25.454Z,63.60
2018-08-04T00:26:06.860Z,63.90
2018-08-04T00:28:48.784Z,63.80
2018-08-04T00:31:32.139Z,63.70
2018-08-04T00:34:14.860Z,63.90
2018-08-04T00:36:56.417Z,63.90
2018-08-04T00:39:37.741Z,63.90
2018-08-04T00:42:19.077Z,64.00
2018-08-04T00:45:00.579Z,64.10
2018-08-04T00:47:44.136Z,63.90
2018-08-04T00:50:25.491Z,64.00
2018-08-04T00:53:07.329Z,64.20
2018-08-04T00:55:48.696Z,64.50
2018-08-04T00:58:31.076Z,64.50
2018-08-04T01:01:14.900Z,64.60
2018-08-04T01:03:56.252Z,64.70
2018-08-04T01:06:37.770Z,65.00
2018-08-04T01:09:19.222Z,64.90
2018-08-04T01:12:00.575Z,65.00
2018-08-04T01:14:42.642Z,65.20
2018-08-04T01:17:24.092Z,65.30
2018-08-04T01:20:06.434Z,65.70
2018-08-04T01:22:47.803Z,65.70
2018-08-04T01:25:29.164Z,65.70
2018-08-04T01:28:10.998Z,65.70
2018-08-04T01:30:52.462Z,67.40
2018-08-04T01:33:34.327Z,66.20
2018-08-04T01:36:16.870Z,66.40
2018-08-04T01:38:58.349Z,66.30
2018-08-04T01:41:41.023Z,66.00
2018-08-04T01:44:22.445Z,66.70
2018-08-04T01:47:03.760Z,65.30
2018-08-04T01:49:46.125Z,65.00
2018-08-04T01:52:27.598Z,65.10
2018-08-04T01:55:08.989Z,65.00
2018-08-04T01:57:51.376Z,64.70
2018-08-04T02:00:33.108Z,64.60
2018-08-04T02:03:15.543Z,64.60
2018-08-04T02:05:56.895Z,64.70
2018-08-04T02:08:38.310Z,64.70
2018-08-04T02:11:20.896Z,64.60
2018-08-04T02:14:02.375Z,64.60
2018-08-04T02:16:45.100Z,64.60
2018-08-04T02:43:30.918Z,64.30
2018-08-04T02:46:17.767Z,64.20
2018-08-04T02:48:59.439Z,64.00
2018-08-04T02:51:40.879Z,63.90
2018-08-04T02:54:24.025Z,64.00
2018-08-04T02:57:05.389Z,63.90
2018-08-04T02:59:46.820Z,63.70
2018-08-04T03:02:28.303Z,63.50
2018-08-04T03:05:09.996Z,63.50
2018-08-04T03:07:52.530Z,63.40
2018-08-04T03:10:33.840Z,63.10
2018-08-04T03:13:15.839Z,62.90
2018-08-04T03:15:57.148Z,62.70
2018-08-04T03:18:38.415Z,62.40
2018-08-04T03:21:25.487Z,62.40
2018-08-04T03:24:07.427Z,62.70
2018-08-04T03:26:51.923Z,62.60
2018-08-04T03:29:33.599Z,62.90
2018-08-04T03:32:15.148Z,62.90
2018-08-04T03:34:56.562Z,63.30
2018-08-04T03:37:38.092Z,63.40
2018-08-04T03:40:19.681Z,63.90
2018-08-04T03:43:01.038Z,64.10
2018-08-04T03:45:42.706Z,65.00
2018-08-04T03:48:25.100Z,65.40
2018-08-04T03:51:06.570Z,65.70
2018-08-04T03:53:48.009Z,66.00
2018-08-04T03:56:29.479Z,66.30
2018-08-04T03:59:10.715Z,66.60
2018-08-04T04:01:54.200Z,66.70
2018-08-04T04:04:35.740Z,66.60
2018-08-04T04:07:17.127Z,66.90
2018-08-04T04:09:58.636Z,66.70
2018-08-04T04:12:40.173Z,66.80
2018-08-04T04:15:22.694Z,66.40
2018-08-04T04:18:06.429Z,66.30
2018-08-04T04:20:48.376Z,66.00
2018-08-04T04:23:31.585Z,65.50
2018-08-04T04:26:13.194Z,65.20
2018-08-04T04:28:55.792Z,65.10
2018-08-04T04:31:37.641Z,64.50
2018-08-04T04:34:19.140Z,64.20
2018-08-04T04:37:00.911Z,64.50
2018-08-04T04:39:43.128Z,64.80
2018-08-04T04:42:25.615Z,64.60
2018-08-04T04:45:07.063Z,64.40
2018-08-04T04:47:48.604Z,64.10
2018-08-04T04:50:31.174Z,64.00
2018-08-04T04:53:12.688Z,63.90
2018-08-04T04:55:55.245Z,64.00
2018-08-04T04:58:36.601Z,63.50
2018-08-04T05:01:17.941Z,62.80
2018-08-04T05:03:59.396Z,62.30
2018-08-04T05:06:41.131Z,62.00
2018-08-04T05:09:25.246Z,61.80
2018-08-04T05:12:06.938Z,61.80
2018-08-04T05:14:48.448Z,61.60
2018-08-04T05:17:30.925Z,61.40
2018-08-04T05:20:12.445Z,61.70
2018-08-04T05:22:55.026Z,61.50
2018-08-04T05:25:36.970Z,61.60
2018-08-04T05:28:18.333Z,61.90
2018-08-04T05:31:00.947Z,61.70
2018-08-04T05:33:42.488Z,61.80
2018-08-04T05:39:10.000Z,62.80
2018-08-04T05:41:54.169Z,62.60
2018-08-04T05:44:35.516Z,62.50
2018-08-04T05:47:17.208Z,62.70
2018-08-04T05:49:58.589Z,62.70
2018-08-04T05:52:44.031Z,63.20
2018-08-04T05:55:29.237Z,63.20
2018-08-04T05:58:10.752Z,63.60
2018-08-04T06:00:54.007Z,63.10
2018-08-04T06:03:35.471Z,63.00
2018-08-04T06:06:17.142Z,63.20
2018-08-04T06:08:58.503Z,62.80
2018-08-04T06:11:40.537Z,62.60
2018-08-04T06:17:05.256Z,62.40
2018-08-04T06:19:46.583Z,61.80
2018-08-04T06:22:28.204Z,61.50
2018-08-04T06:25:09.689Z,60.90
2018-08-04T06:27:51.869Z,61.00
2018-08-04T06:30:33.726Z,61.00
2018-08-04T06:33:16.028Z,59.40
2018-08-04T06:35:58.300Z,59.10
2018-08-04T06:38:39.721Z,58.50
2018-08-04T06:41:21.892Z,58.60
2018-08-04T06:44:03.741Z,58.70
2018-08-04T06:46:45.092Z,58.80
2018-08-04T06:49:27.349Z,58.80
2018-08-04T06:52:08.691Z,58.90
2018-08-04T06:54:50.981Z,59.00
2018-08-04T06:57:32.572Z,59.10
2018-08-04T07:00:13.930Z,59.20
2018-08-04T07:02:56.441Z,58.40
2018-08-04T07:05:37.799Z,57.60
2018-08-04T07:08:19.176Z,56.90
2018-08-04T07:11:00.813Z,56.80
2018-08-04T07:13:42.272Z,56.30
2018-08-04T07:16:24.971Z,56.00
2018-08-04T07:19:07.497Z,54.90
2018-08-04T07:21:48.937Z,53.30
2018-08-04T07:24:30.962Z,52.90
2018-08-04T07:27:12.339Z,52.30
2018-08-04T07:29:55.128Z,51.60
2018-08-04T07:32:36.597Z,50.50
2018-08-04T07:35:18.159Z,50.70
2018-08-04T07:38:01.023Z,50.20
2018-08-04T07:40:42.552Z,48.80
2018-08-04T07:43:25.175Z,48.80
2018-08-04T07:46:06.543Z,48.60
2018-08-04T07:48:47.750Z,47.30
2018-08-04T07:51:29.291Z,48.00
2018-08-04T07:54:10.680Z,46.80
2018-08-04T07:56:54.023Z,46.30
2018-08-04T07:59:35.292Z,45.50
2018-08-04T08:02:16.614Z,47.10
2018-08-04T08:04:58.368Z,46.30
2018-08-04T08:07:39.856Z,45.80
2018-08-04T08:10:22.317Z,45.50
2018-08-04T08:13:03.751Z,44.00
2018-08-04T08:15:45.079Z,44.10
2018-08-04T08:18:26.792Z,45.20
2018-08-04T08:21:08.365Z,44.00
2018-08-04T08:23:51.573Z,42.40
2018-08-04T08:26:33.803Z,42.70
2018-08-04T08:29:15.556Z,41.20
2018-08-04T08:31:56.906Z,41.10
2018-08-04T08:34:38.401Z,42.70
2018-08-04T08:37:21.076Z,41.10
2018-08-04T08:40:05.182Z,42.80
2018-08-04T08:42:46.524Z,40.80
2018-08-04T08:45:28.064Z,40.20
2018-08-04T08:48:09.436Z,39.00
2018-08-04T08:50:54.137Z,40.20
2018-08-04T08:53:35.701Z,40.40
2018-08-04T08:56:17.759Z,39.40
2018-08-04T08:58:59.108Z,39.80
2018-08-04T09:01:40.601Z,42.80
2018-08-04T09:04:25.045Z,41.50
2018-08-04T09:07:06.635Z,40.20
2018-08-04T09:12:29.263Z,39.80
2018-08-04T09:15:10.678Z,40.00
2018-08-04T09:17:54.340Z,40.30
2018-08-04T09:20:35.656Z,40.80
2018-08-04T09:23:17.437Z,40.70
2018-08-04T09:25:58.842Z,40.00
2018-08-04T09:28:40.271Z,40.70
2018-08-04T09:31:23.950Z,40.60
2018-08-04T09:34:05.359Z,41.50
2018-08-04T09:36:47.439Z,41.50
2018-08-04T09:39:28.864Z,41.80
2018-08-04T09:42:10.330Z,41.60
2018-08-04T09:44:54.234Z,42.10
2018-08-04T09:50:17.200Z,42.20
2018-08-04T09:52:58.668Z,43.30
2018-08-04T09:55:40.175Z,42.20
2018-08-04T09:58:24.005Z,40.50
2018-08-04T10:01:10.693Z,39.50
2018-08-04T10:03:54.212Z,40.30
2018-08-04T10:06:35.795Z,41.30
2018-08-04T10:09:17.188Z,41.10
2018-08-04T10:11:58.538Z,40.80
2018-08-04T10:14:39.811Z,40.40
2018-08-04T10:17:23.988Z,40.80
2018-08-04T10:20:06.191Z,39.70
2018-08-04T10:22:47.659Z,40.00
2018-08-04T10:25:28.996Z,40.20
2018-08-04T10:28:10.404Z,42.00
2018-08-04T10:30:53.958Z,40.80
2018-08-04T10:33:35.497Z,40.80
2018-08-04T10:38:58.965Z,40.70
2018-08-04T10:41:40.276Z,40.70
2018-08-04T10:44:24.251Z,40.50
2018-08-04T10:47:05.765Z,40.30
2018-08-04T10:49:47.962Z,39.60
2018-08-04T10:52:29.451Z,40.20
2018-08-04T10:55:10.908Z,40.00
2018-08-04T10:57:54.075Z,38.80
2018-08-04T11:00:35.527Z,39.10
2018-08-04T11:03:16.862Z,37.50
2018-08-04T11:05:58.387Z,37.30
2018-08-04T11:08:39.683Z,37.90
2018-08-04T11:11:24.085Z,37.30
2018-08-04T11:14:06.614Z,37.70
2018-08-04T11:16:48.164Z,37.50
2018-08-04T11:19:30.933Z,37.80
2018-08-04T11:22:12.397Z,37.70
2018-08-04T11:24:54.906Z,37.60
2018-08-04T11:27:36.225Z,37.20
2018-08-04T11:30:17.528Z,37.00
2018-08-04T11:32:58.997Z,36.70
2018-08-04T11:35:40.436Z,36.60
2018-08-04T11:38:24.096Z,36.00
2018-08-04T11:41:05.481Z,36.50
2018-08-04T11:43:46.920Z,36.90
2018-08-04T11:46:28.448Z,36.60
2018-08-04T11:49:09.857Z,36.90
2018-08-04T11:51:53.954Z,37.70
2018-08-04T11:54:35.175Z,36.50
2018-08-04T11:57:16.547Z,35.10
2018-08-04T11:59:58.080Z,36.20
2018-08-04T12:02:39.628Z,36.10
2018-08-04T12:05:22.152Z,36.30
2018-08-04T12:08:09.212Z,36.20
2018-08-04T12:10:52.167Z,36.40
2018-08-04T12:13:34.049Z,36.60
2018-08-04T12:16:15.603Z,36.20
2018-08-04T12:18:57.431Z,36.00
2018-08-04T12:21:39.130Z,37.40
2018-08-04T12:24:20.917Z,36.30
2018-08-04T12:27:02.600Z,36.20
2018-08-04T12:29:44.361Z,37.00
2018-08-04T12:32:27.247Z,36.90
2018-08-04T12:35:09.783Z,37.40
2018-08-04T12:37:53.111Z,37.20
2018-08-04T12:40:34.689Z,37.50
2018-08-04T12:43:16.164Z,37.00
2018-08-04T12:45:57.777Z,37.50
2018-08-04T12:48:39.391Z,38.10
2018-08-04T12:51:21.415Z,36.40
2018-08-04T12:54:02.879Z,36.70
2018-08-04T12:56:44.204Z,37.20
2018-08-04T12:59:26.838Z,38.90
2018-08-04T13:02:08.733Z,36.80
2018-08-04T13:04:51.948Z,38.00
2018-08-04T13:07:34.211Z,36.90
2018-08-04T13:10:15.707Z,36.80
2018-08-04T13:12:57.421Z,36.80
2018-08-04T13:15:54.641Z,36.70
2018-08-04T13:18:36.212Z,36.40
2018-08-04T13:21:17.647Z,36.50
2018-08-04T13:23:59.295Z,36.90
2018-08-04T13:26:41.340Z,36.60
2018-08-04T13:29:24.778Z,37.00
2018-08-04T13:32:08.659Z,36.00
2018-08-04T13:34:51.445Z,36.30
2018-08-04T13:37:33.007Z,36.80
2018-08-04T13:40:14.333Z,36.60
2018-08-04T13:42:57.300Z,36.30
2018-08-04T13:45:40.403Z,36.30
2018-08-04T13:48:23.192Z,36.30
2018-08-04T13:51:04.575Z,36.80
2018-08-04T13:53:46.081Z,36.60
2018-08-04T13:56:27.447Z,36.30
2018-08-04T13:59:08.921Z,37.50
2018-08-04T14:01:51.640Z,37.40
2018-08-04T14:04:33.172Z,36.20
2018-08-04T14:07:14.732Z,36.20
2018-08-04T14:09:56.977Z,36.70
2018-08-04T14:12:38.616Z,36.40
2018-08-04T14:15:21.759Z,36.20
2018-08-04T14:18:04.297Z,37.20
2018-08-04T14:20:45.828Z,37.50
2018-08-04T14:23:27.712Z,35.90
2018-08-04T14:26:09.610Z,35.80
2018-08-04T14:28:51.863Z,35.50
2018-08-04T14:31:34.522Z,35.80
2018-08-04T14:34:15.863Z,36.30
2018-08-04T14:39:39.226Z,36.10
2018-08-04T14:42:21.820Z,36.20
2018-08-04T14:45:04.375Z,35.70
2018-08-04T14:47:45.895Z,36.30
2018-08-04T14:50:27.690Z,36.30
2018-08-04T14:53:09.251Z,35.90
2018-08-04T14:55:51.744Z,36.30
2018-08-04T14:58:33.054Z,36.90
2018-08-04T15:01:15.709Z,36.20
2018-08-04T15:03:57.570Z,36.00
2018-08-04T15:06:39.040Z,35.80
2018-08-04T15:09:20.411Z,35.70
2018-08-04T15:12:01.734Z,35.90
2018-08-04T15:14:43.186Z,36.40
2018-08-04T15:17:35.190Z,36.40
2018-08-04T15:20:18.280Z,36.70
2018-08-04T15:22:59.739Z,37.10
2018-08-04T15:25:41.092Z,36.90
2018-08-04T15:28:24.991Z,36.70
2018-08-04T15:31:06.444Z,36.30
2018-08-04T15:33:47.938Z,36.10
2018-08-04T15:36:29.311Z,36.90
2018-08-04T15:39:16.647Z,36.90
2018-08-04T15:41:58.149Z,37.20
2018-08-04T15:44:42.502Z,37.50
2018-08-04T15:47:26.246Z,36.90
2018-08-04T15:50:07.611Z,37.00
2018-08-04T15:52:49.323Z,37.00
2018-08-04T15:55:31.684Z,37.20
2018-08-04T15:58:13.253Z,37.40
2018-08-04T16:00:56.479Z,37.10
2018-08-04T16:03:38.047Z,36.80
2018-08-04T16:06:19.440Z,37.40
2018-08-04T16:09:02.076Z,37.40
2018-08-04T16:11:43.599Z,38.00
2018-08-04T16:14:26.040Z,38.30
2018-08-04T16:17:08.013Z,38.10
2018-08-04T16:19:49.620Z,38.20
2018-08-04T16:22:31.691Z,37.40
2018-08-04T16:25:13.649Z,37.00
2018-08-04T16:27:56.543Z,37.10
2018-08-04T16:30:37.899Z,37.70
2018-08-04T16:33:19.353Z,37.20
2018-08-04T16:36:01.712Z,37.30
2018-08-04T16:38:43.052Z,37.70
2018-08-04T16:41:25.970Z,39.20
2018-08-04T16:44:07.323Z,38.00
2018-08-04T16:46:48.797Z,38.00
2018-08-04T16:49:30.672Z,38.30
2018-08-04T16:52:12.045Z,38.00
2018-08-04T16:54:56.010Z,38.40
2018-08-04T16:57:37.835Z,39.40
2018-08-04T17:00:25.304Z,39.70
2018-08-04T17:03:06.808Z,40.20
2018-08-04T17:05:48.767Z,40.40
2018-08-04T17:08:30.283Z,40.20
2018-08-04T17:11:12.345Z,39.80
2018-08-04T17:13:56.189Z,39.70
2018-08-04T17:16:37.913Z,40.00
2018-08-04T17:19:19.406Z,40.20
2018-08-04T17:22:01.769Z,40.40
2018-08-04T17:24:43.063Z,40.50
2018-08-04T17:27:28.415Z,40.80
2018-08-04T17:30:09.988Z,41.10
2018-08-04T17:32:52.176Z,45.20
2018-08-04T17:35:34.896Z,48.20
2018-08-04T17:38:17.315Z,49.70
2018-08-04T17:40:58.829Z,50.50
2018-08-04T17:43:40.201Z,52.10
2018-08-04T17:46:22.112Z,53.00
2018-08-04T17:49:03.603Z,53.40
2018-08-04T17:51:45.199Z,53.90
2018-08-04T17:54:27.895Z,54.40
2018-08-04T17:57:09.501Z,54.80
2018-08-04T17:59:52.077Z,55.30
2018-08-04T18:02:33.737Z,55.20
2018-08-04T18:05:15.449Z,55.80
2018-08-04T18:07:58.362Z,55.80
2018-08-04T18:10:39.783Z,55.40
2018-08-04T18:13:22.004Z,55.80
2018-08-04T18:16:03.299Z,55.50
2018-08-04T18:18:44.634Z,55.20
2018-08-04T18:21:27.133Z,55.70
2018-08-04T18:24:08.610Z,55.80
2018-08-04T18:26:49.908Z,55.80
2018-08-04T18:29:32.105Z,56.10
2018-08-04T18:32:13.463Z,56.10
2018-08-04T18:34:55.906Z,56.30
2018-08-04T18:37:37.265Z,56.60
2018-08-04T18:40:18.608Z,56.40
2018-08-04T18:43:00.052Z,56.50
2018-08-04T18:45:41.445Z,56.80
2018-08-04T18:48:23.623Z,56.80
2018-08-04T18:51:04.972Z,57.00
2018-08-04T18:53:46.391Z,56.80
2018-08-04T18:56:27.868Z,57.00
2018-08-04T18:59:09.206Z,56.90
2018-08-04T19:07:13.321Z,56.90
2018-08-04T19:09:56.168Z,57.10
2018-08-04T19:15:18.622Z,57.80
2018-08-04T19:18:02.041Z,57.60
2018-08-04T19:20:43.396Z,57.60
2018-08-04T19:23:26.071Z,57.20
2018-08-04T19:26:07.637Z,56.90
2018-08-04T19:28:49.613Z,56.90
2018-08-04T19:31:33.037Z,56.80
2018-08-04T19:34:14.495Z,56.80
2018-08-04T19:36:56.851Z,56.90
2018-08-04T19:39:38.264Z,57.50
2018-08-04T19:42:19.668Z,57.60
2018-08-04T19:45:11.074Z,57.70
2018-08-04T19:47:53.828Z,58.10
2018-08-04T19:50:35.289Z,57.70
2018-08-04T19:53:17.115Z,57.80
2018-08-04T19:55:58.831Z,57.70
2018-08-04T19:58:40.267Z,57.80
2018-08-04T20:01:22.240Z,58.10
2018-08-04T20:04:03.704Z,58.30
2018-08-04T20:06:45.090Z,58.10
2018-08-04T20:09:27.368Z,58.50
2018-08-04T20:12:08.612Z,58.70
2018-08-04T20:14:49.967Z,58.70
2018-08-04T20:17:32.384Z,58.70
2018-08-04T20:20:13.792Z,59.30
2018-08-04T20:22:56.236Z,59.40
2018-08-04T20:25:38.623Z,60.30
2018-08-04T20:28:22.360Z,61.30
2018-08-04T20:31:05.387Z,59.50
2018-08-04T20:33:48.036Z,59.70
2018-08-04T20:39:11.368Z,59.80
2018-08-04T20:41:53.984Z,59.60
2018-08-04T20:44:35.943Z,59.40
2018-08-04T20:47:17.500Z,60.20
2018-08-04T20:49:59.042Z,60.20
2018-08-04T20:52:40.779Z,61.20
2018-08-04T20:55:23.787Z,62.40
2018-08-04T20:58:05.286Z,61.10
2018-08-04T21:01:03.631Z,61.00
2018-08-04T21:03:44.927Z,61.20
2018-08-04T21:06:27.707Z,61.20
2018-08-04T21:09:09.061Z,61.00
2018-08-04T21:11:52.470Z,61.10
2018-08-04T21:14:34.133Z,60.60
2018-08-04T21:17:15.847Z,61.00
2018-08-04T21:19:59.454Z,61.00
2018-08-04T21:22:41.067Z,61.10
2018-08-04T21:25:23.729Z,61.00
2018-08-04T21:28:05.987Z,60.60
2018-08-04T21:30:47.441Z,60.10
2018-08-04T21:33:28.930Z,59.80
2018-08-04T21:36:12.117Z,60.30
2018-08-04T21:38:55.716Z,60.00
2018-08-04T21:41:37.155Z,59.70
2018-08-04T21:44:18.497Z,59.30
2018-08-04T21:46:59.960Z,58.80
2018-08-04T21:49:42.495Z,58.30
2018-08-04T21:52:25.965Z,58.60
2018-08-04T21:55:07.432Z,60.00
2018-08-04T21:57:48.835Z,60.70
2018-08-04T22:00:30.772Z,60.70
2018-08-04T22:03:13.314Z,60.60
2018-08-04T22:05:56.652Z,60.60
2018-08-04T22:08:55.684Z,59.70
2018-08-04T22:11:37.176Z,59.20
2018-08-04T22:14:18.512Z,59.20
2018-08-04T22:17:00.879Z,59.30
2018-08-04T22:19:42.222Z,60.00
2018-08-04T22:22:24.384Z,60.30
2018-08-04T22:25:07.305Z,60.50
2018-08-04T22:27:49.289Z,60.20
2018-08-04T22:30:30.596Z,60.50
2018-08-04T22:33:11.949Z,60.50
2018-08-04T22:35:56.804Z,60.50
2018-08-04T22:38:38.372Z,60.40
2018-08-04T22:41:19.768Z,60.30
2018-08-04T22:44:01.312Z,60.40
2018-08-04T22:46:42.784Z,60.30
2018-08-04T22:49:26.853Z,60.40
2018-08-04T22:52:08.810Z,60.90
2018-08-04T22:54:50.407Z,61.40
2018-08-04T22:57:33.532Z,61.70
2018-08-04T23:00:18.268Z,61.80
2018-08-04T23:02:59.817Z,61.90
2018-08-04T23:05:41.173Z,62.20
2018-08-04T23:08:23.643Z,62.30
2018-08-04T23:11:05.658Z,62.40
2018-08-04T23:13:47.016Z,62.60
2018-08-04T23:16:28.579Z,62.50
2018-08-04T23:19:09.871Z,62.70
2018-08-04T23:21:51.166Z,63.20
2018-08-04T23:24:33.467Z,63.30
2018-08-04T23:27:14.861Z,63.80
2018-08-04T23:29:57.315Z,63.70
2018-08-04T23:32:38.887Z,64.10
2018-08-04T23:35:21.043Z,63.80
2018-08-04T23:38:03.272Z,63.90
2018-08-04T23:40:45.324Z,64.10
2018-08-04T23:43:28.232Z,64.30
2018-08-04T23:46:09.674Z,64.70
2018-08-04T23:48:52.782Z,65.00
2018-08-04T23:51:35.615Z,65.40
2018-08-04T23:54:17.213Z,65.70
2018-08-04T23:56:58.702Z,65.60
2018-08-04T23:59:40.293Z,65.70
